sensor_id;sensor_type;location;lat;lon;timestamp;P1;durP1;ratioP1;P2;durP2;ratioP2
13611;SDS011;6877;51.436;6.774;2023-04-25T00:00:02;16.92;;;6.13;;
13611;SDS011;6877;51.436;6.774;2023-04-25T00:02:33;11.05;;;4.63;;
13611;SDS011;6877;51.436;6.774;2023-04-25T00:05:06;13.60;;;6.07;;
13611;SDS011;6877;51.436;6.774;2023-04-25T00:07:33;11.23;;;5.30;;
13611;SDS011;6877;51.436;6.774;2023-04-25T00:10:05;14.85;;;5.32;;
13611;SDS011;6877;51.436;6.774;2023-04-25T00:12:38;15.40;;;5.22;;
13611;SDS011;6877;51.436;6.774;2023-04-25T00:15:05;24.10;;;5.00;;
13611;SDS011;6877;51.436;6.774;2023-04-25T00:17:37;13.90;;;5.13;;
13611;SDS011;6877;51.436;6.774;2023-04-25T00:20:09;14.07;;;5.75;;
13611;SDS011;6877;51.436;6.774;2023-04-25T00:22:36;12.27;;;5.43;;
13611;SDS011;6877;51.436;6.774;2023-04-25T00:25:04;13.40;;;6.10;;
13611;SDS011;6877;51.436;6.774;2023-04-25T00:27:37;10.50;;;5.47;;
13611;SDS011;6877;51.436;6.774;2023-04-25T00:30:10;15.95;;;5.65;;
13611;SDS011;6877;51.436;6.774;2023-04-25T00:32:36;20.45;;;7.13;;
13611;SDS011;6877;51.436;6.774;2023-04-25T00:35:08;15.43;;;5.93;;
13611;SDS011;6877;51.436;6.774;2023-04-25T00:37:40;13.48;;;6.35;;
13611;SDS011;6877;51.436;6.774;2023-04-25T00:40:06;15.65;;;5.90;;
13611;SDS011;6877;51.436;6.774;2023-04-25T00:42:34;16.92;;;5.32;;
13611;SDS011;6877;51.436;6.774;2023-04-25T00:45:02;12.60;;;5.40;;
13611;SDS011;6877;51.436;6.774;2023-04-25T00:47:31;12.35;;;5.63;;
13611;SDS011;6877;51.436;6.774;2023-04-25T00:49:59;18.38;;;7.50;;
13611;SDS011;6877;51.436;6.774;2023-04-25T00:52:30;19.00;;;7.10;;
13611;SDS011;6877;51.436;6.774;2023-04-25T00:54:57;12.85;;;5.30;;
13611;SDS011;6877;51.436;6.774;2023-04-25T00:57:23;14.95;;;5.50;;
13611;SDS011;6877;51.436;6.774;2023-04-25T00:59:51;20.60;;;6.38;;
13611;SDS011;6877;51.436;6.774;2023-04-25T01:02:19;16.75;;;6.28;;
13611;SDS011;6877;51.436;6.774;2023-04-25T01:04:51;14.50;;;7.22;;
13611;SDS011;6877;51.436;6.774;2023-04-25T01:07:17;13.60;;;6.95;;
13611;SDS011;6877;51.436;6.774;2023-04-25T01:09:47;17.75;;;6.75;;
13611;SDS011;6877;51.436;6.774;2023-04-25T01:12:19;14.65;;;6.80;;
13611;SDS011;6877;51.436;6.774;2023-04-25T01:14:46;15.23;;;6.10;;
13611;SDS011;6877;51.436;6.774;2023-04-25T01:17:17;15.57;;;6.70;;
13611;SDS011;6877;51.436;6.774;2023-04-25T01:19:45;15.93;;;9.38;;
13611;SDS011;6877;51.436;6.774;2023-04-25T01:22:14;13.23;;;5.13;;
13611;SDS011;6877;51.436;6.774;2023-04-25T01:24:46;24.00;;;7.43;;
13611;SDS011;6877;51.436;6.774;2023-04-25T01:27:12;10.38;;;5.85;;
13611;SDS011;6877;51.436;6.774;2023-04-25T01:29:39;17.35;;;6.72;;
13611;SDS011;6877;51.436;6.774;2023-04-25T01:32:06;9.88;;;5.25;;
13611;SDS011;6877;51.436;6.774;2023-04-25T01:34:33;10.60;;;6.57;;
13611;SDS011;6877;51.436;6.774;2023-04-25T01:37:00;16.90;;;7.45;;
13611;SDS011;6877;51.436;6.774;2023-04-25T01:39:34;18.38;;;6.35;;
13611;SDS011;6877;51.436;6.774;2023-04-25T01:42:01;25.65;;;8.95;;
13611;SDS011;6877;51.436;6.774;2023-04-25T01:44:27;15.25;;;6.53;;
13611;SDS011;6877;51.436;6.774;2023-04-25T01:46:54;14.63;;;6.32;;
13611;SDS011;6877;51.436;6.774;2023-04-25T01:49:20;18.15;;;6.60;;
13611;SDS011;6877;51.436;6.774;2023-04-25T01:51:52;15.05;;;6.25;;
13611;SDS011;6877;51.436;6.774;2023-04-25T01:54:18;15.00;;;5.93;;
13611;SDS011;6877;51.436;6.774;2023-04-25T01:56:50;12.38;;;6.22;;
13611;SDS011;6877;51.436;6.774;2023-04-25T01:59:17;25.17;;;7.45;;
13611;SDS011;6877;51.436;6.774;2023-04-25T02:01:52;12.15;;;6.30;;
13611;SDS011;6877;51.436;6.774;2023-04-25T02:04:19;15.27;;;6.45;;
13611;SDS011;6877;51.436;6.774;2023-04-25T02:06:50;11.43;;;5.97;;
13611;SDS011;6877;51.436;6.774;2023-04-25T02:09:16;12.00;;;5.28;;
13611;SDS011;6877;51.436;6.774;2023-04-25T02:11:43;16.40;;;7.47;;
13611;SDS011;6877;51.436;6.774;2023-04-25T02:14:10;14.80;;;5.82;;
13611;SDS011;6877;51.436;6.774;2023-04-25T02:16:41;18.58;;;6.82;;
13611;SDS011;6877;51.436;6.774;2023-04-25T02:19:14;17.58;;;6.03;;
13611;SDS011;6877;51.436;6.774;2023-04-25T02:21:45;11.35;;;5.60;;
13611;SDS011;6877;51.436;6.774;2023-04-25T02:24:17;12.95;;;6.22;;
13611;SDS011;6877;51.436;6.774;2023-04-25T02:26:43;17.65;;;7.00;;
13611;SDS011;6877;51.436;6.774;2023-04-25T02:29:10;15.38;;;6.28;;
13611;SDS011;6877;51.436;6.774;2023-04-25T02:31:36;14.85;;;6.53;;
13611;SDS011;6877;51.436;6.774;2023-04-25T02:34:03;14.73;;;5.78;;
13611;SDS011;6877;51.436;6.774;2023-04-25T02:36:34;13.73;;;6.25;;
13611;SDS011;6877;51.436;6.774;2023-04-25T02:39:06;9.60;;;5.28;;
13611;SDS011;6877;51.436;6.774;2023-04-25T02:41:37;13.57;;;5.72;;
13611;SDS011;6877;51.436;6.774;2023-04-25T02:44:09;11.63;;;5.43;;
13611;SDS011;6877;51.436;6.774;2023-04-25T02:46:35;16.13;;;6.00;;
13611;SDS011;6877;51.436;6.774;2023-04-25T02:49:02;18.00;;;5.95;;
13611;SDS011;6877;51.436;6.774;2023-04-25T02:51:28;12.98;;;6.07;;
13611;SDS011;6877;51.436;6.774;2023-04-25T02:53:54;11.55;;;5.72;;
13611;SDS011;6877;51.436;6.774;2023-04-25T02:56:21;15.27;;;6.75;;
13611;SDS011;6877;51.436;6.774;2023-04-25T02:58:47;17.23;;;6.70;;
13611;SDS011;6877;51.436;6.774;2023-04-25T03:01:13;17.60;;;6.38;;
13611;SDS011;6877;51.436;6.774;2023-04-25T03:03:40;22.65;;;7.05;;
13611;SDS011;6877;51.436;6.774;2023-04-25T03:06:11;15.68;;;5.90;;
13611;SDS011;6877;51.436;6.774;2023-04-25T03:08:37;16.90;;;5.63;;
13611;SDS011;6877;51.436;6.774;2023-04-25T03:11:09;11.77;;;5.45;;
13611;SDS011;6877;51.436;6.774;2023-04-25T03:13:36;13.35;;;5.68;;
13611;SDS011;6877;51.436;6.774;2023-04-25T03:16:02;10.63;;;5.15;;
13611;SDS011;6877;51.436;6.774;2023-04-25T03:18:34;16.70;;;5.53;;
13611;SDS011;6877;51.436;6.774;2023-04-25T03:21:00;19.85;;;5.15;;
13611;SDS011;6877;51.436;6.774;2023-04-25T03:23:27;12.98;;;5.80;;
13611;SDS011;6877;51.436;6.774;2023-04-25T03:25:58;16.67;;;6.80;;
13611;SDS011;6877;51.436;6.774;2023-04-25T03:28:24;28.45;;;6.22;;
13611;SDS011;6877;51.436;6.774;2023-04-25T03:30:56;14.07;;;5.40;;
13611;SDS011;6877;51.436;6.774;2023-04-25T03:33:27;11.68;;;5.80;;
13611;SDS011;6877;51.436;6.774;2023-04-25T03:35:59;14.55;;;6.72;;
13611;SDS011;6877;51.436;6.774;2023-04-25T03:38:30;15.25;;;7.30;;
13611;SDS011;6877;51.436;6.774;2023-04-25T03:41:02;22.52;;;6.70;;
13611;SDS011;6877;51.436;6.774;2023-04-25T03:43:29;14.00;;;5.47;;
13611;SDS011;6877;51.436;6.774;2023-04-25T03:45:55;18.67;;;6.07;;
13611;SDS011;6877;51.436;6.774;2023-04-25T03:48:21;20.55;;;5.35;;
13611;SDS011;6877;51.436;6.774;2023-04-25T03:50:55;15.43;;;4.82;;
13611;SDS011;6877;51.436;6.774;2023-04-25T03:53:21;13.88;;;6.10;;
13611;SDS011;6877;51.436;6.774;2023-04-25T03:55:48;20.25;;;6.07;;
13611;SDS011;6877;51.436;6.774;2023-04-25T03:58:14;23.25;;;6.50;;
13611;SDS011;6877;51.436;6.774;2023-04-25T04:00:41;13.57;;;4.93;;
13611;SDS011;6877;51.436;6.774;2023-04-25T04:03:07;16.67;;;6.10;;
13611;SDS011;6877;51.436;6.774;2023-04-25T04:05:39;16.52;;;6.15;;
13611;SDS011;6877;51.436;6.774;2023-04-25T04:08:06;19.92;;;7.00;;
13611;SDS011;6877;51.436;6.774;2023-04-25T04:10:33;19.77;;;6.40;;
13611;SDS011;6877;51.436;6.774;2023-04-25T04:12:59;16.63;;;5.10;;
13611;SDS011;6877;51.436;6.774;2023-04-25T04:15:30;18.00;;;6.78;;
13611;SDS011;6877;51.436;6.774;2023-04-25T04:18:03;14.07;;;5.80;;
13611;SDS011;6877;51.436;6.774;2023-04-25T04:20:30;15.85;;;5.75;;
13611;SDS011;6877;51.436;6.774;2023-04-25T04:23:01;14.73;;;6.22;;
13611;SDS011;6877;51.436;6.774;2023-04-25T04:25:28;17.90;;;6.38;;
13611;SDS011;6877;51.436;6.774;2023-04-25T04:27:54;18.63;;;6.95;;
13611;SDS011;6877;51.436;6.774;2023-04-25T04:30:24;17.23;;;5.72;;
13611;SDS011;6877;51.436;6.774;2023-04-25T04:32:51;16.23;;;5.57;;
13611;SDS011;6877;51.436;6.774;2023-04-25T04:35:23;23.17;;;7.03;;
13611;SDS011;6877;51.436;6.774;2023-04-25T04:37:55;21.90;;;6.47;;
13611;SDS011;6877;51.436;6.774;2023-04-25T04:40:22;11.52;;;5.35;;
13611;SDS011;6877;51.436;6.774;2023-04-25T04:42:53;21.00;;;6.07;;
13611;SDS011;6877;51.436;6.774;2023-04-25T04:45:27;16.02;;;6.95;;
13611;SDS011;6877;51.436;6.774;2023-04-25T04:47:53;16.95;;;6.05;;
13611;SDS011;6877;51.436;6.774;2023-04-25T04:50:21;19.50;;;6.15;;
13611;SDS011;6877;51.436;6.774;2023-04-25T04:52:47;18.17;;;6.07;;
13611;SDS011;6877;51.436;6.774;2023-04-25T04:55:19;21.60;;;6.75;;
13611;SDS011;6877;51.436;6.774;2023-04-25T04:57:45;20.92;;;7.22;;
13611;SDS011;6877;51.436;6.774;2023-04-25T05:00:11;18.48;;;8.88;;
13611;SDS011;6877;51.436;6.774;2023-04-25T05:02:38;23.48;;;7.07;;
13611;SDS011;6877;51.436;6.774;2023-04-25T05:05:09;18.98;;;6.35;;
13611;SDS011;6877;51.436;6.774;2023-04-25T05:07:36;20.67;;;7.75;;
13611;SDS011;6877;51.436;6.774;2023-04-25T05:10:02;19.42;;;7.57;;
13611;SDS011;6877;51.436;6.774;2023-04-25T05:12:29;15.45;;;6.20;;
13611;SDS011;6877;51.436;6.774;2023-04-25T05:15:01;29.45;;;6.90;;
13611;SDS011;6877;51.436;6.774;2023-04-25T05:17:27;22.60;;;8.18;;
13611;SDS011;6877;51.436;6.774;2023-04-25T05:19:54;18.65;;;6.65;;
13611;SDS011;6877;51.436;6.774;2023-04-25T05:22:20;31.00;;;10.35;;
13611;SDS011;6877;51.436;6.774;2023-04-25T05:24:51;22.13;;;7.35;;
13611;SDS011;6877;51.436;6.774;2023-04-25T05:27:18;16.63;;;7.82;;
13611;SDS011;6877;51.436;6.774;2023-04-25T05:29:50;21.45;;;8.30;;
13611;SDS011;6877;51.436;6.774;2023-04-25T05:32:17;21.27;;;6.57;;
13611;SDS011;6877;51.436;6.774;2023-04-25T05:34:48;32.90;;;8.05;;
13611;SDS011;6877;51.436;6.774;2023-04-25T05:37:15;21.13;;;6.18;;
13611;SDS011;6877;51.436;6.774;2023-04-25T05:39:46;14.75;;;7.70;;
13611;SDS011;6877;51.436;6.774;2023-04-25T05:42:13;13.35;;;7.10;;
13611;SDS011;6877;51.436;6.774;2023-04-25T05:44:44;22.00;;;6.80;;
13611;SDS011;6877;51.436;6.774;2023-04-25T05:47:16;16.13;;;6.30;;
13611;SDS011;6877;51.436;6.774;2023-04-25T05:49:42;17.63;;;6.72;;
13611;SDS011;6877;51.436;6.774;2023-04-25T05:52:13;29.88;;;8.02;;
13611;SDS011;6877;51.436;6.774;2023-04-25T05:54:41;19.65;;;5.38;;
13611;SDS011;6877;51.436;6.774;2023-04-25T05:57:22;12.82;;;5.70;;
13611;SDS011;6877;51.436;6.774;2023-04-25T05:59:56;13.38;;;5.60;;
13611;SDS011;6877;51.436;6.774;2023-04-25T06:02:22;16.30;;;7.32;;
13611;SDS011;6877;51.436;6.774;2023-04-25T06:04:49;11.73;;;5.15;;
13611;SDS011;6877;51.436;6.774;2023-04-25T06:07:17;21.48;;;6.13;;
13611;SDS011;6877;51.436;6.774;2023-04-25T06:09:49;15.75;;;5.95;;
13611;SDS011;6877;51.436;6.774;2023-04-25T06:12:15;20.85;;;5.55;;
13611;SDS011;6877;51.436;6.774;2023-04-25T06:14:46;14.77;;;4.70;;
13611;SDS011;6877;51.436;6.774;2023-04-25T06:17:13;12.98;;;5.07;;
13611;SDS011;6877;51.436;6.774;2023-04-25T06:19:39;18.25;;;7.82;;
13611;SDS011;6877;51.436;6.774;2023-04-25T06:22:06;25.42;;;8.35;;
13611;SDS011;6877;51.436;6.774;2023-04-25T06:24:33;16.58;;;5.88;;
13611;SDS011;6877;51.436;6.774;2023-04-25T06:27:00;23.58;;;8.43;;
13611;SDS011;6877;51.436;6.774;2023-04-25T06:29:31;14.60;;;5.95;;
13611;SDS011;6877;51.436;6.774;2023-04-25T06:32:03;11.05;;;5.80;;
13611;SDS011;6877;51.436;6.774;2023-04-25T06:34:29;16.25;;;5.95;;
13611;SDS011;6877;51.436;6.774;2023-04-25T06:36:56;11.55;;;5.70;;
13611;SDS011;6877;51.436;6.774;2023-04-25T06:39:23;14.27;;;5.32;;
13611;SDS011;6877;51.436;6.774;2023-04-25T06:41:56;10.63;;;5.22;;
13611;SDS011;6877;51.436;6.774;2023-04-25T06:44:22;16.48;;;5.35;;
13611;SDS011;6877;51.436;6.774;2023-04-25T06:46:55;12.55;;;4.35;;
13611;SDS011;6877;51.436;6.774;2023-04-25T06:49:21;14.85;;;5.22;;
13611;SDS011;6877;51.436;6.774;2023-04-25T06:51:53;15.60;;;5.72;;
13611;SDS011;6877;51.436;6.774;2023-04-25T06:54:24;10.60;;;5.85;;
13611;SDS011;6877;51.436;6.774;2023-04-25T06:56:58;14.68;;;5.30;;
13611;SDS011;6877;51.436;6.774;2023-04-25T06:59:29;21.20;;;6.47;;
13611;SDS011;6877;51.436;6.774;2023-04-25T07:01:56;14.85;;;5.25;;
13611;SDS011;6877;51.436;6.774;2023-04-25T07:04:22;13.10;;;5.10;;
13611;SDS011;6877;51.436;6.774;2023-04-25T07:06:53;16.25;;;4.72;;
13611;SDS011;6877;51.436;6.774;2023-04-25T07:09:20;18.23;;;6.20;;
13611;SDS011;6877;51.436;6.774;2023-04-25T07:11:47;19.65;;;5.78;;
13611;SDS011;6877;51.436;6.774;2023-04-25T07:14:18;16.85;;;5.03;;
13611;SDS011;6877;51.436;6.774;2023-04-25T07:16:50;18.92;;;5.50;;
13611;SDS011;6877;51.436;6.774;2023-04-25T07:19:16;14.50;;;5.45;;
13611;SDS011;6877;51.436;6.774;2023-04-25T07:21:45;18.52;;;5.65;;
13611;SDS011;6877;51.436;6.774;2023-04-25T07:24:11;11.88;;;6.88;;
13611;SDS011;6877;51.436;6.774;2023-04-25T07:26:38;15.65;;;6.15;;
13611;SDS011;6877;51.436;6.774;2023-04-25T07:29:04;14.90;;;6.25;;
13611;SDS011;6877;51.436;6.774;2023-04-25T07:31:35;18.92;;;5.63;;
13611;SDS011;6877;51.436;6.774;2023-04-25T07:34:02;15.32;;;5.45;;
13611;SDS011;6877;51.436;6.774;2023-04-25T07:36:28;12.98;;;5.57;;
13611;SDS011;6877;51.436;6.774;2023-04-25T07:38:56;18.30;;;6.68;;
13611;SDS011;6877;51.436;6.774;2023-04-25T07:41:23;19.50;;;5.95;;
13611;SDS011;6877;51.436;6.774;2023-04-25T07:43:49;15.00;;;5.00;;
13611;SDS011;6877;51.436;6.774;2023-04-25T07:46:15;21.65;;;5.30;;
13611;SDS011;6877;51.436;6.774;2023-04-25T07:48:42;13.23;;;4.05;;
13611;SDS011;6877;51.436;6.774;2023-04-25T07:51:08;14.00;;;3.95;;
13611;SDS011;6877;51.436;6.774;2023-04-25T07:53:40;12.80;;;3.58;;
13611;SDS011;6877;51.436;6.774;2023-04-25T07:56:06;12.68;;;4.45;;
13611;SDS011;6877;51.436;6.774;2023-04-25T07:58:33;11.05;;;3.53;;
13611;SDS011;6877;51.436;6.774;2023-04-25T08:00:59;11.13;;;3.95;;
13611;SDS011;6877;51.436;6.774;2023-04-25T08:03:26;11.13;;;4.47;;
13611;SDS011;6877;51.436;6.774;2023-04-25T08:05:52;10.27;;;4.22;;
13611;SDS011;6877;51.436;6.774;2023-04-25T08:08:18;6.10;;;3.08;;
13611;SDS011;6877;51.436;6.774;2023-04-25T08:10:45;8.40;;;3.80;;
13611;SDS011;6877;51.436;6.774;2023-04-25T08:13:11;8.77;;;2.67;;
13611;SDS011;6877;51.436;6.774;2023-04-25T08:15:43;12.00;;;3.45;;
13611;SDS011;6877;51.436;6.774;2023-04-25T08:18:09;7.75;;;2.40;;
13611;SDS011;6877;51.436;6.774;2023-04-25T08:45:46;6.35;;;2.30;;
13611;SDS011;6877;51.436;6.774;2023-04-25T08:48:14;11.07;;;3.20;;
13611;SDS011;6877;51.436;6.774;2023-04-25T08:50:45;8.25;;;2.95;;
13611;SDS011;6877;51.436;6.774;2023-04-25T08:53:25;5.28;;;2.47;;
13611;SDS011;6877;51.436;6.774;2023-04-25T08:56:01;9.27;;;2.40;;
13611;SDS011;6877;51.436;6.774;2023-04-25T08:58:33;11.43;;;2.55;;
13611;SDS011;6877;51.436;6.774;2023-04-25T09:01:00;6.00;;;2.22;;
13611;SDS011;6877;51.436;6.774;2023-04-25T09:03:26;8.10;;;2.85;;
13611;SDS011;6877;51.436;6.774;2023-04-25T09:05:53;9.60;;;2.58;;
13611;SDS011;6877;51.436;6.774;2023-04-25T09:08:26;6.15;;;2.03;;
13611;SDS011;6877;51.436;6.774;2023-04-25T09:10:57;5.05;;;1.70;;
13611;SDS011;6877;51.436;6.774;2023-04-25T09:13:29;6.05;;;2.13;;
13611;SDS011;6877;51.436;6.774;2023-04-25T09:16:00;6.55;;;2.13;;
13611;SDS011;6877;51.436;6.774;2023-04-25T09:18:33;9.73;;;2.17;;
13611;SDS011;6877;51.436;6.774;2023-04-25T09:21:10;6.78;;;3.15;;
13611;SDS011;6877;51.436;6.774;2023-04-25T09:23:41;10.73;;;2.80;;
13611;SDS011;6877;51.436;6.774;2023-04-25T09:26:15;9.80;;;2.72;;
13611;SDS011;6877;51.436;6.774;2023-04-25T09:28:43;7.38;;;2.15;;
13611;SDS011;6877;51.436;6.774;2023-04-25T09:31:21;4.93;;;2.10;;
13611;SDS011;6877;51.436;6.774;2023-04-25T09:33:50;6.22;;;2.28;;
13611;SDS011;6877;51.436;6.774;2023-04-25T09:36:26;5.97;;;2.47;;
13611;SDS011;6877;51.436;6.774;2023-04-25T09:38:53;5.07;;;2.00;;
13611;SDS011;6877;51.436;6.774;2023-04-25T09:41:23;6.90;;;2.17;;
13611;SDS011;6877;51.436;6.774;2023-04-25T09:43:50;7.40;;;2.75;;
13611;SDS011;6877;51.436;6.774;2023-04-25T09:46:22;6.90;;;2.30;;
13611;SDS011;6877;51.436;6.774;2023-04-25T09:48:51;4.97;;;1.77;;
13611;SDS011;6877;51.436;6.774;2023-04-25T09:51:19;9.80;;;1.90;;
13611;SDS011;6877;51.436;6.774;2023-04-25T09:53:46;8.30;;;2.88;;
13611;SDS011;6877;51.436;6.774;2023-04-25T09:56:16;3.00;;;2.13;;
13611;SDS011;6877;51.436;6.774;2023-04-25T09:58:43;3.22;;;1.90;;
13611;SDS011;6877;51.436;6.774;2023-04-25T10:01:09;4.13;;;1.90;;
13611;SDS011;6877;51.436;6.774;2023-04-25T10:03:37;9.70;;;1.80;;
13611;SDS011;6877;51.436;6.774;2023-04-25T10:06:12;5.25;;;1.83;;
13611;SDS011;6877;51.436;6.774;2023-04-25T10:08:40;4.78;;;1.90;;
13611;SDS011;6877;51.436;6.774;2023-04-25T10:11:07;8.27;;;2.08;;
13611;SDS011;6877;51.436;6.774;2023-04-25T10:13:35;3.92;;;2.55;;
13611;SDS011;6877;51.436;6.774;2023-04-25T10:16:07;4.25;;;1.77;;
13611;SDS011;6877;51.436;6.774;2023-04-25T10:18:34;3.83;;;1.65;;
13611;SDS011;6877;51.436;6.774;2023-04-25T10:21:01;7.53;;;2.00;;
13611;SDS011;6877;51.436;6.774;2023-04-25T10:23:29;5.30;;;2.17;;
13611;SDS011;6877;51.436;6.774;2023-04-25T10:25:56;9.60;;;1.88;;
13611;SDS011;6877;51.436;6.774;2023-04-25T10:28:29;6.63;;;1.90;;
13611;SDS011;6877;51.436;6.774;2023-04-25T10:31:02;4.32;;;1.85;;
13611;SDS011;6877;51.436;6.774;2023-04-25T10:33:39;3.97;;;1.98;;
13611;SDS011;6877;51.436;6.774;2023-04-25T10:36:19;3.25;;;1.90;;
13611;SDS011;6877;51.436;6.774;2023-04-25T10:38:48;4.57;;;1.77;;
13611;SDS011;6877;51.436;6.774;2023-04-25T10:41:18;7.57;;;1.73;;
13611;SDS011;6877;51.436;6.774;2023-04-25T10:43:46;4.45;;;1.92;;
13611;SDS011;6877;51.436;6.774;2023-04-25T10:51:17;4.55;;;1.98;;
13611;SDS011;6877;51.436;6.774;2023-04-25T10:59:09;7.00;;;1.33;;
13611;SDS011;6877;51.436;6.774;2023-04-25T11:09:35;6.28;;;2.40;;
13611;SDS011;6877;51.436;6.774;2023-04-25T11:12:05;9.20;;;2.38;;
13611;SDS011;6877;51.436;6.774;2023-04-25T11:14:39;7.13;;;2.70;;
13611;SDS011;6877;51.436;6.774;2023-04-25T11:17:05;6.80;;;2.78;;
13611;SDS011;6877;51.436;6.774;2023-04-25T11:19:32;10.05;;;2.88;;
13611;SDS011;6877;51.436;6.774;2023-04-25T11:21:59;8.85;;;3.53;;
13611;SDS011;6877;51.436;6.774;2023-04-25T11:24:31;5.20;;;3.08;;
13611;SDS011;6877;51.436;6.774;2023-04-25T11:27:04;6.00;;;2.75;;
13611;SDS011;6877;51.436;6.774;2023-04-25T11:29:36;4.28;;;3.08;;
13611;SDS011;6877;51.436;6.774;2023-04-25T11:32:03;6.07;;;3.28;;
13611;SDS011;6877;51.436;6.774;2023-04-25T11:34:35;5.05;;;2.80;;
13611;SDS011;6877;51.436;6.774;2023-04-25T11:37:06;6.38;;;2.75;;
13611;SDS011;6877;51.436;6.774;2023-04-25T11:39:33;9.55;;;3.50;;
13611;SDS011;6877;51.436;6.774;2023-04-25T11:42:00;11.20;;;2.95;;
13611;SDS011;6877;51.436;6.774;2023-04-25T11:44:27;8.63;;;3.63;;
13611;SDS011;6877;51.436;6.774;2023-04-25T11:46:54;7.45;;;4.85;;
13611;SDS011;6877;51.436;6.774;2023-04-25T11:49:21;13.80;;;4.05;;
13611;SDS011;6877;51.436;6.774;2023-04-25T11:51:48;11.63;;;4.07;;
13611;SDS011;6877;51.436;6.774;2023-04-25T11:54:20;8.30;;;3.25;;
13611;SDS011;6877;51.436;6.774;2023-04-25T11:56:46;6.35;;;2.90;;
13611;SDS011;6877;51.436;6.774;2023-04-25T11:59:12;8.88;;;3.92;;
13611;SDS011;6877;51.436;6.774;2023-04-25T12:01:48;10.35;;;3.53;;
13611;SDS011;6877;51.436;6.774;2023-04-25T12:04:21;7.88;;;3.35;;
13611;SDS011;6877;51.436;6.774;2023-04-25T12:06:54;6.57;;;3.40;;
13611;SDS011;6877;51.436;6.774;2023-04-25T12:09:28;14.50;;;3.60;;
13611;SDS011;6877;51.436;6.774;2023-04-25T12:11:56;11.02;;;3.58;;
13611;SDS011;6877;51.436;6.774;2023-04-25T12:14:25;9.40;;;3.95;;
13611;SDS011;6877;51.436;6.774;2023-04-25T12:16:54;7.18;;;2.97;;
13611;SDS011;6877;51.436;6.774;2023-04-25T12:19:23;7.88;;;3.47;;
13611;SDS011;6877;51.436;6.774;2023-04-25T12:21:50;10.20;;;3.60;;
13611;SDS011;6877;51.436;6.774;2023-04-25T12:24:18;10.55;;;4.18;;
13611;SDS011;6877;51.436;6.774;2023-04-25T12:26:50;14.13;;;4.47;;
13611;SDS011;6877;51.436;6.774;2023-04-25T12:29:20;8.65;;;3.90;;
13611;SDS011;6877;51.436;6.774;2023-04-25T12:31:49;7.60;;;3.50;;
13611;SDS011;6877;51.436;6.774;2023-04-25T12:34:17;3.83;;;3.05;;
13611;SDS011;6877;51.436;6.774;2023-04-25T12:36:44;16.48;;;2.70;;
13611;SDS011;6877;51.436;6.774;2023-04-25T12:39:18;12.43;;;3.90;;
13611;SDS011;6877;51.436;6.774;2023-04-25T12:41:53;7.40;;;2.90;;
13611;SDS011;6877;51.436;6.774;2023-04-25T12:44:22;4.57;;;2.33;;
13611;SDS011;6877;51.436;6.774;2023-04-25T12:46:48;9.68;;;3.45;;
13611;SDS011;6877;51.436;6.774;2023-04-25T12:49:15;6.63;;;2.90;;
13611;SDS011;6877;51.436;6.774;2023-04-25T12:51:42;4.82;;;2.58;;
13611;SDS011;6877;51.436;6.774;2023-04-25T12:54:14;3.42;;;2.10;;
13611;SDS011;6877;51.436;6.774;2023-04-25T12:56:40;4.70;;;2.28;;
13611;SDS011;6877;51.436;6.774;2023-04-25T12:59:07;3.83;;;1.92;;
13611;SDS011;6877;51.436;6.774;2023-04-25T13:01:38;5.18;;;3.17;;
13611;SDS011;6877;51.436;6.774;2023-04-25T13:04:10;19.50;;;2.75;;
13611;SDS011;6877;51.436;6.774;2023-04-25T13:06:36;5.55;;;3.00;;
13611;SDS011;6877;51.436;6.774;2023-04-25T13:09:02;7.80;;;2.42;;
13611;SDS011;6877;51.436;6.774;2023-04-25T13:11:29;10.98;;;2.58;;
13611;SDS011;6877;51.436;6.774;2023-04-25T13:13:56;13.18;;;3.33;;
13611;SDS011;6877;51.436;6.774;2023-04-25T13:16:22;5.32;;;2.08;;
13611;SDS011;6877;51.436;6.774;2023-04-25T13:18:48;4.75;;;2.67;;
13611;SDS011;6877;51.436;6.774;2023-04-25T13:21:15;6.18;;;2.38;;
13611;SDS011;6877;51.436;6.774;2023-04-25T13:23:41;5.03;;;2.30;;
13611;SDS011;6877;51.436;6.774;2023-04-25T13:26:17;9.90;;;3.75;;
13611;SDS011;6877;51.436;6.774;2023-04-25T13:28:49;10.60;;;4.03;;
13611;SDS011;6877;51.436;6.774;2023-04-25T13:31:15;11.23;;;3.67;;
13611;SDS011;6877;51.436;6.774;2023-04-25T13:33:42;10.82;;;3.70;;
13611;SDS011;6877;51.436;6.774;2023-04-25T13:36:09;8.60;;;2.63;;
13611;SDS011;6877;51.436;6.774;2023-04-25T13:38:36;5.28;;;2.40;;
13611;SDS011;6877;51.436;6.774;2023-04-25T13:41:07;24.75;;;3.78;;
13611;SDS011;6877;51.436;6.774;2023-04-25T13:43:34;3.83;;;2.47;;
13611;SDS011;6877;51.436;6.774;2023-04-25T13:46:05;8.95;;;2.55;;
13611;SDS011;6877;51.436;6.774;2023-04-25T13:48:32;2.83;;;2.05;;
13611;SDS011;6877;51.436;6.774;2023-04-25T13:50:58;4.35;;;2.97;;
13611;SDS011;6877;51.436;6.774;2023-04-25T13:53:25;6.60;;;2.55;;
13611;SDS011;6877;51.436;6.774;2023-04-25T13:55:56;7.80;;;2.45;;
13611;SDS011;6877;51.436;6.774;2023-04-25T13:58:28;8.80;;;2.22;;
13611;SDS011;6877;51.436;6.774;2023-04-25T14:00:59;5.72;;;2.47;;
13611;SDS011;6877;51.436;6.774;2023-04-25T14:03:30;6.07;;;2.47;;
13611;SDS011;6877;51.436;6.774;2023-04-25T14:05:57;3.53;;;1.77;;
13611;SDS011;6877;51.436;6.774;2023-04-25T14:08:23;5.15;;;2.25;;
13611;SDS011;6877;51.436;6.774;2023-04-25T14:10:55;2.35;;;1.95;;
13611;SDS011;6877;51.436;6.774;2023-04-25T14:13:21;7.10;;;4.00;;
13611;SDS011;6877;51.436;6.774;2023-04-25T14:15:49;7.38;;;2.40;;
13611;SDS011;6877;51.436;6.774;2023-04-25T14:18:16;5.47;;;2.65;;
13611;SDS011;6877;51.436;6.774;2023-04-25T14:20:43;5.75;;;2.10;;
13611;SDS011;6877;51.436;6.774;2023-04-25T14:23:10;2.03;;;1.45;;
13611;SDS011;6877;51.436;6.774;2023-04-25T14:25:36;3.63;;;1.90;;
13611;SDS011;6877;51.436;6.774;2023-04-25T14:28:03;3.88;;;2.05;;
13611;SDS011;6877;51.436;6.774;2023-04-25T14:30:34;3.42;;;2.33;;
13611;SDS011;6877;51.436;6.774;2023-04-25T14:33:00;2.55;;;1.90;;
13611;SDS011;6877;51.436;6.774;2023-04-25T14:35:32;5.95;;;2.15;;
13611;SDS011;6877;51.436;6.774;2023-04-25T14:37:58;8.50;;;2.33;;
13611;SDS011;6877;51.436;6.774;2023-04-25T14:40:30;6.65;;;2.42;;
13611;SDS011;6877;51.436;6.774;2023-04-25T14:43:01;5.13;;;3.05;;
13611;SDS011;6877;51.436;6.774;2023-04-25T14:45:28;7.35;;;2.53;;
13611;SDS011;6877;51.436;6.774;2023-04-25T14:47:54;5.97;;;2.40;;
13611;SDS011;6877;51.436;6.774;2023-04-25T14:50:26;5.30;;;3.35;;
13611;SDS011;6877;51.436;6.774;2023-04-25T14:52:58;6.55;;;2.50;;
13611;SDS011;6877;51.436;6.774;2023-04-25T14:55:26;8.05;;;2.60;;
13611;SDS011;6877;51.436;6.774;2023-04-25T14:57:53;9.45;;;2.72;;
13611;SDS011;6877;51.436;6.774;2023-04-25T15:00:21;4.63;;;2.72;;
13611;SDS011;6877;51.436;6.774;2023-04-25T15:02:53;6.20;;;2.35;;
13611;SDS011;6877;51.436;6.774;2023-04-25T15:05:19;5.00;;;2.47;;
13611;SDS011;6877;51.436;6.774;2023-04-25T15:07:46;6.00;;;2.55;;
13611;SDS011;6877;51.436;6.774;2023-04-25T15:10:13;17.20;;;5.15;;
13611;SDS011;6877;51.436;6.774;2023-04-25T15:12:45;6.30;;;3.10;;
13611;SDS011;6877;51.436;6.774;2023-04-25T15:15:11;6.47;;;2.53;;
13611;SDS011;6877;51.436;6.774;2023-04-25T15:17:43;5.95;;;2.63;;
13611;SDS011;6877;51.436;6.774;2023-04-25T15:20:11;6.60;;;3.35;;
13611;SDS011;6877;51.436;6.774;2023-04-25T15:22:42;7.78;;;3.30;;
13611;SDS011;6877;51.436;6.774;2023-04-25T15:25:10;7.63;;;2.95;;
13611;SDS011;6877;51.436;6.774;2023-04-25T15:27:38;7.30;;;2.95;;
13611;SDS011;6877;51.436;6.774;2023-04-25T15:30:10;3.75;;;2.05;;
13611;SDS011;6877;51.436;6.774;2023-04-25T15:32:38;3.50;;;2.33;;
13611;SDS011;6877;51.436;6.774;2023-04-25T15:35:10;4.47;;;2.30;;
13611;SDS011;6877;51.436;6.774;2023-04-25T15:37:37;3.28;;;2.00;;
13611;SDS011;6877;51.436;6.774;2023-04-25T15:42:42;6.10;;;2.45;;
13611;SDS011;6877;51.436;6.774;2023-04-25T15:45:13;4.95;;;1.92;;
13611;SDS011;6877;51.436;6.774;2023-04-25T15:47:47;12.32;;;2.15;;